Time;durP1;ratioP1;P1;durP2;ratioP2;P2;SDS_P1;SDS_P2;PMS_P1;PMS_P2;Temp;Humidity;BMP_temperature;BMP_pressure;BME280_temperature;BME280_humidity;BME280_pressure;Samples;Min_cycle;Max_cycle;Signal;HPM_P1;HPM_P2
2023/07/26 00:00:25;;;;;;;6.28;3.45;;;;;;;20.44;64.92;98528.72;7631687;32;37804;-84
2023/07/26 00:04:41;;;;;;;8.43;3.58;;;;;;;20.36;65.28;98530.56;7631870;32;39118;-84
2023/07/26 00:08:58;;;;;;;6.50;3.35;;;;;;;20.40;65.12;98536.97;7631766;32;39969;-85
2023/07/26 00:13:18;;;;;;;6.90;3.28;;;;;;;20.40;65.29;98538.94;7631599;32;38842;-84
2023/07/26 00:17:34;;;;;;;5.57;3.20;;;;;;;20.19;66.29;98548.44;7631765;32;37793;-84
2023/07/26 00:21:51;;;;;;;6.75;3.30;;;;;;;20.11;66.74;98551.44;7631012;32;39476;-84
2023/07/26 00:26:07;;;;;;;5.62;2.83;;;;;;;20.00;66.95;98559.53;7631413;32;40745;-85
2023/07/26 00:30:23;;;;;;;13.45;3.75;;;;;;;20.16;66.73;98557.47;7630113;32;37614;-84
2023/07/26 00:34:40;;;;;;;7.40;3.35;;;;;;;20.26;66.35;98569.91;7631270;32;38176;-84
2023/07/26 00:38:56;;;;;;;6.62;2.90;;;;;;;20.30;65.99;98573.56;7631155;32;40027;-84
2023/07/26 00:43:13;;;;;;;5.53;2.87;;;;;;;20.40;65.49;98572.12;7631233;32;40922;-85
2023/07/26 00:47:30;;;;;;;6.40;3.37;;;;;;;20.27;66.28;98561.25;7630982;32;38761;-84
2023/07/26 00:51:46;;;;;;;7.12;3.03;;;;;;;20.50;65.40;98541.09;7630942;32;37863;-86
2023/07/26 00:56:03;;;;;;;6.87;3.08;;;;;;;20.61;65.07;98532.97;7630862;32;39546;-85
2023/07/26 01:00:19;;;;;;;5.57;2.75;;;;;;;20.44;65.02;98537.03;7630538;32;40525;-84
2023/07/26 01:04:39;;;;;;;5.85;2.87;;;;;;;20.25;65.68;98527.59;7629348;32;38232;-85
2023/07/26 01:09:23;;;;;;;5.60;3.12;;;;;;;20.40;65.90;98511.25;7630587;32;36774;-84
2023/07/26 01:13:45;;;;;;;6.10;3.15;;;;;;;20.48;65.78;98490.03;7630429;32;40024;-84
2023/07/26 01:18:17;;;;;;;4.53;2.97;;;;;;;20.46;65.71;98476.56;7630377;32;39712;-84
2023/07/26 01:22:33;;;;;;;7.00;3.60;;;;;;;20.45;65.94;98473.00;7630108;32;37967;-85
2023/07/26 01:26:50;;;;;;;8.07;3.58;;;;;;;20.53;65.69;98479.44;7902820;27;37040;-80
2023/07/26 01:31:07;;;;;;;9.10;3.50;;;;;;;20.43;65.85;98466.22;7681481;32;39306;-80
2023/07/26 01:35:24;;;;;;;7.15;3.60;;;;;;;20.54;65.67;98481.06;7684885;32;39741;-80
2023/07/26 01:39:41;;;;;;;12.73;3.67;;;;;;;20.54;65.50;98472.75;7684863;32;38664;-81
2023/07/26 01:43:57;;;;;;;6.25;3.30;;;;;;;20.54;65.48;98472.75;7684860;32;37825;-79
2023/07/26 01:48:13;;;;;;;5.03;3.30;;;;;;;20.61;65.11;98477.59;7686152;32;40164;-80
2023/07/26 01:52:29;;;;;;;8.18;3.20;;;;;;;20.56;65.18;98487.03;7686110;32;39945;-80
2023/07/26 01:56:47;;;;;;;9.63;3.47;;;;;;;20.54;65.44;98477.47;7685888;32;37689;-81
2023/07/26 02:01:04;;;;;;;10.20;3.50;;;;;;;20.40;65.76;98478.84;7685913;32;38155;-80
2023/07/26 02:05:21;;;;;;;9.85;3.28;;;;;;;20.30;65.99;98485.00;7685896;32;39518;-80
2023/07/26 02:09:38;;;;;;;5.37;3.15;;;;;;;20.27;65.86;98492.06;7685793;32;39894;-80
2023/07/26 02:13:54;;;;;;;7.68;3.35;;;;;;;20.38;65.43;98511.62;7685780;32;37635;-80
2023/07/26 02:18:10;;;;;;;7.20;3.40;;;;;;;20.34;65.70;98501.66;7685740;32;37782;-80
2023/07/26 02:22:26;;;;;;;7.70;4.20;;;;;;;20.27;65.82;98489.28;7685694;32;40209;-80
2023/07/26 02:26:43;;;;;;;7.75;3.72;;;;;;;20.00;66.83;98482.06;7685526;32;39676;-80
2023/07/26 02:30:59;;;;;;;9.40;3.92;;;;;;;20.11;66.68;98483.09;7685540;32;38637;-80
2023/07/26 02:35:15;;;;;;;9.20;4.18;;;;;;;20.14;66.24;98515.53;7685494;32;37149;-80
2023/07/26 02:39:32;;;;;;;7.70;4.25;;;;;;;19.88;67.43;98527.28;7684296;32;39166;-80
2023/07/26 02:43:48;;;;;;;6.20;4.07;;;;;;;20.09;66.76;98513.06;7685167;32;40073;-80
2023/07/26 02:48:05;;;;;;;7.65;3.87;;;;;;;20.13;66.68;98513.94;7685362;32;37889;-80
2023/07/26 02:52:21;;;;;;;11.68;5.03;;;;;;;20.01;67.21;98516.88;7685329;32;37109;-80
2023/07/26 02:56:37;;;;;;;11.65;4.20;;;;;;;20.18;66.59;98521.94;7685271;32;40589;-80
2023/07/26 03:00:54;;;;;;;11.57;4.45;;;;;;;20.01;67.17;98522.41;7685145;32;40747;-80
2023/07/26 03:05:10;;;;;;;9.05;4.30;;;;;;;20.14;66.59;98525.81;7685133;32;38623;-80
2023/07/26 03:09:27;;;;;;;10.23;4.30;;;;;;;20.12;66.75;98526.16;7685129;32;37137;-80
2023/07/26 03:13:43;;;;;;;10.23;5.25;;;;;;;20.05;67.04;98534.34;7685132;32;40056;-80
2023/07/26 03:17:59;;;;;;;11.48;5.03;;;;;;;20.10;67.01;98536.00;7684968;32;40922;-80
2023/07/26 03:22:16;;;;;;;8.57;4.90;;;;;;;20.03;67.17;98509.00;7684875;32;38483;-80
2023/07/26 03:26:32;;;;;;;12.25;5.50;;;;;;;20.20;66.72;98500.25;7684720;32;37300;-80
2023/07/26 03:30:49;;;;;;;10.85;5.00;;;;;;;20.30;66.78;98511.84;7684954;32;39479;-80
2023/07/26 03:35:06;;;;;;;9.68;4.97;;;;;;;20.31;66.64;98522.56;7684883;32;39692;-80
2023/07/26 03:39:22;;;;;;;9.85;5.37;;;;;;;20.25;66.77;98526.81;7684813;32;38203;-80
2023/07/26 03:43:39;;;;;;;8.00;4.75;;;;;;;20.27;66.48;98530.81;7684713;32;37821;-80
2023/07/26 03:47:55;;;;;;;8.93;5.10;;;;;;;20.08;67.37;98539.13;7684840;32;39346;-80
2023/07/26 03:52:12;;;;;;;7.85;4.68;;;;;;;19.72;68.82;98546.69;7684681;32;39779;-80
2023/07/26 03:56:28;;;;;;;11.85;5.03;;;;;;;19.94;68.22;98544.38;7683767;32;37782;-81
2023/07/26 04:00:44;;;;;;;9.65;5.25;;;;;;;20.03;67.69;98542.19;7683263;32;37356;-81
2023/07/26 04:05:01;;;;;;;11.82;4.90;;;;;;;20.01;67.97;98561.94;7684508;32;39466;-79
2023/07/26 04:09:17;;;;;;;9.23;5.15;;;;;;;20.06;68.94;98563.59;7664449;32;40763;-81
2023/07/26 04:13:34;;;;;;;10.77;4.15;;;;;;;19.92;68.17;98560.53;7658031;32;38092;-80
2023/07/26 04:17:50;;;;;;;9.13;4.50;;;;;;;20.07;67.80;98576.25;7658031;32;37817;-79
2023/07/26 04:22:07;;;;;;;6.72;3.85;;;;;;;19.58;68.16;98583.13;7657986;32;39435;-81
2023/07/26 04:26:23;;;;;;;7.35;4.37;;;;;;;19.46;68.93;98592.34;7657727;32;40761;-80
2023/07/26 04:30:39;;;;;;;7.97;3.90;;;;;;;19.46;68.38;98608.13;7673627;32;38037;-80
2023/07/26 04:34:55;;;;;;;6.93;3.78;;;;;;;19.49;67.63;98602.69;7684076;32;38304;-80
2023/07/26 04:39:12;;;;;;;9.27;3.80;;;;;;;19.54;67.56;98609.06;7684089;32;39814;-80
2023/07/26 04:43:28;;;;;;;7.55;4.03;;;;;;;19.52;67.50;98624.06;7682873;32;40087;-79
2023/07/26 04:47:44;;;;;;;11.93;4.20;;;;;;;19.36;67.04;98615.00;7695070;32;38720;-80
2023/07/26 04:52:01;;;;;;;13.93;4.22;;;;;;;19.45;67.79;98623.88;7710425;32;38493;-79
2023/07/26 04:56:17;;;;;;;11.05;3.95;;;;;;;19.47;67.88;98632.62;7688342;32;39481;-79
2023/07/26 05:00:33;;;;;;;6.97;4.18;;;;;;;19.64;67.00;98616.81;7683083;32;40858;-79
2023/07/26 05:04:50;;;;;;;5.18;3.25;;;;;;;19.58;66.81;98609.97;7683208;32;38747;-80
2023/07/26 05:09:06;;;;;;;6.18;3.40;;;;;;;19.31;67.05;98615.28;7682433;32;36803;-79
2023/07/26 05:13:23;;;;;;;6.10;3.33;;;;;;;19.30;66.44;98606.19;7686614;32;39367;-79
2023/07/26 05:17:39;;;;;;;5.97;3.00;;;;;;;19.20;66.76;98605.94;7685891;32;39902;-79
2023/07/26 05:21:56;;;;;;;4.97;2.28;;;;;;;19.27;66.42;98623.47;7686341;32;38813;-78
2023/07/26 05:26:12;;;;;;;3.60;2.17;;;;;;;19.01;66.76;98609.44;7686219;32;37058;-79
2023/07/26 05:30:28;;;;;;;3.70;1.90;;;;;;;18.84;66.21;98613.34;7666027;32;39461;-77
2023/07/26 05:34:45;;;;;;;4.22;2.20;;;;;;;19.06;65.25;98618.25;7660055;32;40191;-79
2023/07/26 05:39:01;;;;;;;6.07;2.10;;;;;;;18.71;66.34;98629.13;7660378;32;35674;-79
2023/07/26 05:43:18;;;;;;;4.80;1.95;;;;;;;18.84;66.27;98616.09;7659881;32;37915;-79
2023/07/26 05:47:38;;;;;;;3.85;2.20;;;;;;;18.96;65.70;98627.06;7659896;32;40754;-80
2023/07/26 05:51:54;;;;;;;8.02;2.30;;;;;;;18.85;66.26;98625.97;7670943;32;40584;-79
2023/07/26 05:56:10;;;;;;;3.90;2.37;;;;;;;19.01;65.62;98643.38;7686094;32;38006;-80
2023/07/26 06:00:27;;;;;;;5.25;1.87;;;;;;;18.72;66.20;98644.56;7685945;32;37024;-79
2023/07/26 06:04:44;;;;;;;9.68;6.53;;;;;;;19.13;64.90;98634.19;7686042;32;39370;-77
2023/07/26 06:09:00;;;;;;;3.62;1.73;;;;;;;19.56;63.93;98628.84;7686002;32;40700;-79
2023/07/26 06:13:16;;;;;;;4.57;1.70;;;;;;;18.81;64.77;98639.66;7685857;32;37972;-79
2023/07/26 06:17:33;;;;;;;6.30;1.80;;;;;;;18.84;64.48;98630.72;7685423;32;37335;-80
2023/07/26 06:21:50;;;;;;;1.98;1.75;;;;;;;19.26;63.50;98632.13;7684592;32;39393;-80
2023/07/26 06:26:06;;;;;;;4.20;1.83;;;;;;;18.86;64.97;98646.91;7685616;32;40050;-79
2023/07/26 06:30:22;;;;;;;3.58;1.83;;;;;;;19.18;64.16;98644.16;7685636;32;38001;-79
2023/07/26 06:34:39;;;;;;;2.97;1.50;;;;;;;18.59;65.16;98663.12;7675900;32;37786;-76
2023/07/26 06:38:55;;;;;;;10.52;2.55;;;;;;;18.69;65.65;98659.84;7659250;32;40097;-79
2023/07/26 06:43:12;;;;;;;4.15;1.87;;;;;;;18.85;65.19;98670.16;7659206;32;41248;-79
2023/07/26 06:47:28;;;;;;;3.40;2.00;;;;;;;18.56;65.28;98683.19;7659128;32;38428;-79
2023/07/26 06:51:44;;;;;;;4.85;1.90;;;;;;;18.54;65.57;98666.16;7662973;32;37878;-78
2023/07/26 06:56:01;;;;;;;2.70;1.70;;;;;;;18.72;65.53;98663.88;7674186;32;40155;-79
2023/07/26 07:00:17;;;;;;;3.17;2.00;;;;;;;18.64;65.58;98684.97;7664984;32;39937;-79
2023/07/26 07:04:34;;;;;;;3.58;2.28;;;;;;;18.49;66.99;98688.47;7667886;32;37898;-78
2023/07/26 07:08:51;;;;;;;9.95;1.98;;;;;;;18.76;66.03;98687.69;7671871;32;37277;-78
2023/07/26 07:13:07;;;;;;;3.10;1.65;;;;;;;18.54;66.90;98697.31;7668344;32;39400;-79
2023/07/26 07:17:24;;;;;;;2.90;1.90;;;;;;;18.60;66.60;98705.34;7667390;32;40310;-78
2023/07/26 07:21:40;;;;;;;3.70;1.83;;;;;;;18.29;67.09;98718.66;7675886;32;38404;-79
2023/07/26 07:25:57;;;;;;;6.12;2.00;;;;;;;18.53;67.02;98705.94;7685039;32;37074;-75
2023/07/26 07:30:14;;;;;;;2.50;1.87;;;;;;;18.26;67.27;98715.81;7665728;32;39481;-79
2023/07/26 07:34:30;;;;;;;3.05;1.60;;;;;;;18.20;67.77;98723.53;7657490;32;40737;-79
2023/07/26 07:38:47;;;;;;;4.72;1.90;;;;;;;18.96;65.58;98709.91;7658547;32;38717;-79
2023/07/26 07:43:03;;;;;;;3.22;1.70;;;;;;;18.90;65.71;98714.06;7657311;32;37231;-79
2023/07/26 07:47:20;;;;;;;3.05;1.60;;;;;;;18.98;65.74;98720.59;7658571;32;39518;-80
2023/07/26 07:51:36;;;;;;;3.47;2.00;;;;;;;19.05;66.34;98735.41;7662164;32;39914;-79
2023/07/26 07:55:52;;;;;;;3.05;2.00;;;;;;;18.08;69.04;98751.16;7662641;32;38690;-79
2023/07/26 08:02:08;;;;;;;4.00;1.75;;;;;;;19.03;66.52;98767.31;7839042;31;933842;-80
2023/07/26 08:06:24;;;;;;;2.22;1.60;;;;;;;19.03;66.52;98767.31;7840264;31;40710;-78
2023/07/26 08:10:40;;;;;;;3.03;1.75;;;;;;;18.66;67.13;98773.75;7840057;31;38615;-78
2023/07/26 08:14:57;;;;;;;3.08;1.92;;;;;;;18.57;66.80;98784.94;7840219;32;36923;-78
2023/07/26 08:19:13;;;;;;;3.72;1.90;;;;;;;18.72;65.92;98777.84;7839878;32;39108;-77
2023/07/26 08:23:30;;;;;;;3.42;1.83;;;;;;;19.01;65.22;98786.97;7837478;32;40800;-78
2023/07/26 08:27:47;;;;;;;2.78;1.80;;;;;;;19.01;65.29;98775.94;7823477;31;37931;-77
2023/07/26 08:32:04;;;;;;;2.92;1.80;;;;;;;18.66;64.50;98771.00;7822433;32;37345;-78
2023/07/26 08:36:20;;;;;;;3.08;1.80;;;;;;;18.74;64.43;98778.31;7839919;32;39778;-78
2023/07/26 08:40:41;;;;;;;2.80;2.00;;;;;;;18.77;64.10;98777.62;7838046;31;40018;-78
2023/07/26 08:44:59;;;;;;;2.50;1.73;;;;;;;18.74;64.03;98783.84;7822064;31;37591;-78
2023/07/26 08:49:16;;;;;;;4.25;2.10;;;;;;;18.84;63.26;98790.06;7798304;32;36799;-78
2023/07/26 08:53:33;;;;;;;2.25;1.50;;;;;;;18.74;62.96;98799.59;7812200;32;38986;-78
2023/07/26 08:57:51;;;;;;;3.85;1.60;;;;;;;18.49;63.49;98801.62;7812151;32;40152;-78
2023/07/26 09:02:10;;;;;;;3.78;1.60;;;;;;;18.71;63.35;98803.06;7813515;32;37769;-78
2023/07/26 09:06:27;;;;;;;3.08;1.95;;;;;;;19.12;62.11;98803.84;7839848;31;37698;-78
2023/07/26 09:10:43;;;;;;;1.90;1.70;;;;;;;18.67;63.77;98802.94;7830607;32;39171;-78
2023/07/26 09:15:07;;;;;;;3.33;1.87;;;;;;;18.83;63.24;98814.09;7791156;32;40702;-79
2023/07/26 09:19:32;;;;;;;4.37;2.10;;;;;;;18.62;64.11;98825.28;7806012;32;37960;-79
2023/07/26 09:23:48;;;;;;;4.07;1.98;;;;;;;18.91;63.04;98831.69;7813021;32;37507;-78
2023/07/26 09:28:08;;;;;;;2.87;1.98;;;;;;;18.95;62.90;98840.84;7804728;32;39241;-80
2023/07/26 09:32:29;;;;;;;5.07;1.98;;;;;;;19.19;61.87;98850.19;7804516;32;40808;-78
2023/07/26 09:36:50;;;;;;;4.03;2.15;;;;;;;18.97;63.09;98846.03;7793273;32;38748;-78
2023/07/26 09:41:37;;;;;;;3.08;1.90;;;;;;;19.21;62.84;98845.13;7793041;32;35892;-78
2023/07/26 09:46:02;;;;;;;3.40;2.17;;;;;;;19.23;63.12;98843.63;7803729;32;39275;-78
2023/07/26 09:50:28;;;;;;;3.05;2.20;;;;;;;19.18;62.46;98837.53;7810322;32;39867;-78
2023/07/26 09:54:47;;;;;;;5.15;2.17;;;;;;;19.12;62.40;98832.25;7792315;32;38287;-79
2023/07/26 09:59:07;;;;;;;3.62;2.20;;;;;;;19.11;62.92;98833.44;7792113;32;37524;-78
2023/07/26 10:03:24;;;;;;;2.22;1.95;;;;;;;19.04;63.01;98838.75;7779159;32;39266;-78
2023/07/26 10:07:40;;;;;;;5.47;2.60;;;;;;;19.63;61.67;98828.88;7792199;32;39927;-79
2023/07/26 10:11:57;;;;;;;8.50;2.70;;;;;;;19.34;62.48;98835.63;7775917;32;37769;-79
2023/07/26 10:16:14;;;;;;;3.47;2.15;;;;;;;19.48;62.96;98843.50;7777490;32;36644;-79
2023/07/26 10:20:31;;;;;;;4.03;2.65;;;;;;;19.49;62.15;98845.09;7792272;32;39326;-79
2023/07/26 10:24:48;;;;;;;3.42;2.40;;;;;;;19.41;63.15;98844.09;7791860;32;39821;-78
2023/07/26 10:29:05;;;;;;;6.30;2.90;;;;;;;19.07;63.27;98857.37;7792693;32;37872;-78
2023/07/26 10:33:21;;;;;;;4.25;2.87;;;;;;;18.53;65.75;98846.69;7792797;32;36935;-78
2023/07/26 10:37:38;;;;;;;5.03;3.20;;;;;;;17.74;67.12;98864.25;7792824;32;39145;-78
2023/07/26 10:41:54;;;;;;;3.97;2.67;;;;;;;17.89;67.37;98860.06;7792610;32;40014;-79
2023/07/26 10:46:13;;;;;;;3.80;2.60;;;;;;;18.50;65.15;98867.50;7792551;32;38638;-78
2023/07/26 10:50:30;;;;;;;4.55;2.78;;;;;;;18.75;64.25;98878.53;7792721;32;36912;-79
2023/07/26 10:54:51;;;;;;;3.83;2.85;;;;;;;18.46;65.28;98874.88;7792615;32;39167;-78
2023/07/26 10:59:10;;;;;;;4.18;2.40;;;;;;;18.36;64.73;98876.16;7792213;32;40029;-78
2023/07/26 11:03:27;;;;;;;4.45;2.37;;;;;;;18.54;63.67;98878.66;7792437;32;38673;-78
2023/07/26 11:08:00;;;;;;;4.40;2.60;;;;;;;18.42;63.01;98879.50;7792366;32;36990;-79
2023/07/26 11:12:22;;;;;;;2.85;2.20;;;;;;;18.49;62.80;98888.00;7792564;32;39245;-78
2023/07/26 11:16:39;;;;;;;3.10;2.27;;;;;;;18.16;63.54;98894.44;7792341;32;40077;-78
2023/07/26 11:20:56;;;;;;;2.80;1.90;;;;;;;18.29;63.13;98891.69;7792018;32;38069;-79
2023/07/26 11:25:12;;;;;;;3.05;1.87;;;;;;;18.56;62.13;98877.16;7792120;32;37575;-79
2023/07/26 11:29:29;;;;;;;7.40;2.15;;;;;;;18.80;62.12;98878.28;7792018;32;39192;-79
2023/07/26 11:33:45;;;;;;;5.28;2.03;;;;;;;19.47;60.25;98883.34;7791508;32;40128;-78
2023/07/26 11:38:01;;;;;;;4.50;1.70;;;;;;;19.72;59.18;98877.69;7791750;32;38601;-79
2023/07/26 11:42:18;;;;;;;2.95;2.00;;;;;;;19.80;59.96;98869.25;7791747;32;36513;-78
2023/07/26 11:46:35;;;;;;;3.47;1.87;;;;;;;19.74;59.67;98875.34;7791680;32;39242;-78
2023/07/26 11:50:55;;;;;;;1.62;1.37;;;;;;;19.53;59.97;98868.09;7777834;32;41436;-79
2023/07/26 11:55:12;;;;;;;1.75;1.58;;;;;;;19.10;60.27;98873.25;7791308;32;37633;-78
2023/07/26 11:59:28;;;;;;;1.65;1.30;;;;;;;19.51;59.69;98874.00;7791085;32;37745;-78
2023/07/26 12:03:45;;;;;;;1.83;1.45;;;;;;;19.74;58.45;98878.13;7777527;32;39124;-79
2023/07/26 12:08:05;;;;;;;2.08;1.27;;;;;;;19.82;59.26;98875.22;7791056;32;40861;-78
2023/07/26 12:12:21;;;;;;;2.25;1.70;;;;;;;19.57;59.12;98879.25;7777497;32;38660;-78
2023/07/26 12:16:38;;;;;;;2.78;1.02;;;;;;;19.66;58.20;98877.94;7790982;32;36863;-79
2023/07/26 12:21:02;;;;;;;1.10;1.00;;;;;;;19.90;57.05;98881.72;7790707;32;39945;-79
2023/07/26 12:25:36;;;;;;;2.78;0.88;;;;;;;19.79;57.53;98870.41;7790429;32;40044;-79
2023/07/26 12:29:52;;;;;;;0.82;0.82;;;;;;;20.15;56.75;98874.06;7790501;32;38736;-79
2023/07/26 12:34:11;;;;;;;3.83;0.80;;;;;;;20.09;56.40;98872.72;7790554;32;36957;-78
2023/07/26 12:38:27;;;;;;;0.70;0.70;;;;;;;20.04;56.52;98871.03;7790585;32;39111;-78
2023/07/26 12:42:53;;;;;;;2.55;0.98;;;;;;;20.19;55.84;98869.41;7790215;32;40802;-78
2023/07/26 12:47:09;;;;;;;1.65;0.98;;;;;;;20.00;56.27;98874.84;7814646;32;38766;-78
2023/07/26 12:51:46;;;;;;;3.40;1.00;;;;;;;20.16;56.98;98874.84;7821413;32;36868;-78
2023/07/26 12:56:02;;;;;;;4.30;1.08;;;;;;;20.55;56.17;98874.97;7799542;32;39726;-78
2023/07/26 13:00:18;;;;;;;0.45;0.45;;;;;;;20.57;55.50;98870.66;7810263;32;39896;-76
2023/07/26 13:04:35;;;;;;;0.65;0.65;;;;;;;20.77;53.53;98874.31;7820998;32;38915;-76
2023/07/26 13:08:52;;;;;;;0.30;0.30;;;;;;;20.84;52.97;98872.87;7821135;32;37665;-77
2023/07/26 13:13:08;;;;;;;0.30;0.30;;;;;;;20.68;52.98;98861.81;7821169;32;38974;-76
2023/07/26 13:17:24;;;;;;;1.35;0.30;;;;;;;20.84;52.72;98868.13;7820836;32;39939;-77
2023/07/26 13:21:41;;;;;;;1.75;0.50;;;;;;;21.25;50.83;98871.34;7820753;32;38630;-77
2023/07/26 13:25:57;;;;;;;0.47;0.20;;;;;;;21.50;50.90;98877.38;7817610;32;36943;-77
2023/07/26 13:30:14;;;;;;;7.85;0.43;;;;;;;22.49;48.27;98882.25;7793581;32;39134;-78
2023/07/26 13:34:30;;;;;;;4.65;0.40;;;;;;;23.11;45.10;98883.09;7793375;32;39794;-78
2023/07/26 13:38:46;;;;;;;0.40;0.30;;;;;;;23.18;45.51;98895.13;7793902;32;37853;-78
2023/07/26 13:43:03;;;;;;;3.67;0.30;;;;;;;24.07;43.56;98897.25;7793125;32;36869;-78
2023/07/26 13:47:19;;;;;;;0.20;0.20;;;;;;;24.52;42.15;98886.84;7796675;32;39266;-78
2023/07/26 13:51:37;;;;;;;0.30;0.30;;;;;;;23.96;41.78;98899.97;7805636;32;39902;-78
2023/07/26 13:55:53;;;;;;;1.92;0.50;;;;;;;23.55;42.53;98922.16;7806552;32;37978;-78
2023/07/26 14:00:10;;;;;;;0.20;0.20;;;;;;;22.90;44.31;98934.41;7807848;32;36804;-78
2023/07/26 14:04:26;;;;;;;0.45;0.40;;;;;;;23.57;44.17;98914.22;7799270;32;39152;-78
2023/07/26 14:08:43;;;;;;;0.47;0.20;;;;;;;23.92;41.85;98915.84;7806452;32;40092;-78
2023/07/26 14:12:59;;;;;;;0.60;0.20;;;;;;;24.43;41.15;98913.47;7809211;32;37852;-78
2023/07/26 14:17:16;;;;;;;1.52;0.30;;;;;;;24.26;41.48;98918.50;7799116;32;37061;-77
2023/07/26 14:21:32;;;;;;;0.40;0.40;;;;;;;24.36;40.79;98922.56;7795838;32;39880;-78
2023/07/26 14:25:49;;;;;;;2.00;0.52;;;;;;;25.13;41.32;98917.13;7807333;32;39992;-77
2023/07/26 14:30:06;;;;;;;2.58;0.30;;;;;;;24.89;40.50;98929.72;7801322;32;38659;-77
2023/07/26 14:34:23;;;;;;;0.43;0.28;;;;;;;24.05;41.28;98946.16;7798481;32;36673;-77
2023/07/26 14:38:39;;;;;;;0.55;0.22;;;;;;;24.93;39.01;98944.47;7796467;32;40753;-78
2023/07/26 14:42:55;;;;;;;2.35;0.45;;;;;;;24.73;42.30;98955.91;7816905;32;41590;-78
2023/07/26 14:47:12;;;;;;;2.42;0.40;;;;;;;24.50;39.37;98955.31;7814969;32;37664;-78
2023/07/26 14:51:28;;;;;;;0.50;0.45;;;;;;;24.81;39.76;98953.16;7802503;32;36893;-77
2023/07/26 14:55:45;;;;;;;3.17;0.30;;;;;;;24.81;39.42;98962.31;7810373;32;39117;-77
2023/07/26 15:00:01;;;;;;;1.00;0.25;;;;;;;25.22;38.45;98972.53;7792149;32;40864;-76
2023/07/26 15:04:18;;;;;;;0.60;0.40;;;;;;;25.23;39.47;98961.00;7817075;32;37773;-78
2023/07/26 15:08:34;;;;;;;1.77;0.45;;;;;;;25.31;38.76;98964.63;7812326;32;36900;-75
2023/07/26 15:12:51;;;;;;;1.23;0.40;;;;;;;24.63;38.79;98975.31;7792957;32;39306;-76
2023/07/26 15:17:08;;;;;;;1.75;0.40;;;;;;;24.61;41.00;98977.69;7805381;32;40091;-76
2023/07/26 15:21:25;;;;;;;1.02;0.50;;;;;;;25.24;39.41;98976.50;7801768;32;37953;-75
2023/07/26 15:25:41;;;;;;;1.52;0.32;;;;;;;24.95;39.29;98980.34;7796340;32;36866;-76
2023/07/26 15:29:58;;;;;;;0.43;0.37;;;;;;;24.92;39.71;98993.03;7791952;32;39331;-75
2023/07/26 15:34:15;;;;;;;0.52;0.28;;;;;;;24.10;38.71;99004.28;7802075;32;40624;-75
2023/07/26 15:38:31;;;;;;;1.37;0.35;;;;;;;24.49;40.38;99010.22;7819378;32;37325;-76
2023/07/26 15:42:48;;;;;;;1.10;0.50;;;;;;;24.48;38.55;99018.97;7793148;32;37424;-75
2023/07/26 15:47:15;;;;;;;3.97;0.40;;;;;;;24.37;39.92;99021.66;7800776;32;39279;-75
2023/07/26 15:51:32;;;;;;;0.60;0.10;;;;;;;24.73;38.87;99024.75;7803188;32;41694;-75
2023/07/26 15:55:52;;;;;;;0.40;0.28;;;;;;;24.67;38.21;99034.69;7806342;32;38682;-75
2023/07/26 16:00:11;;;;;;;1.62;0.30;;;;;;;24.73;39.16;99035.91;7811214;32;37664;-77
2023/07/26 16:04:27;;;;;;;0.68;0.22;;;;;;;24.79;37.60;99045.53;7793307;32;39270;-75
2023/07/26 16:08:44;;;;;;;1.85;0.20;;;;;;;24.69;37.57;99032.31;7812544;32;40773;-76
2023/07/26 16:13:03;;;;;;;4.30;0.32;;;;;;;24.18;37.32;99028.22;7817835;32;37425;-76
2023/07/26 16:17:19;;;;;;;2.62;0.32;;;;;;;23.76;39.98;99041.25;7807858;32;37790;-79
2023/07/26 16:21:36;;;;;;;0.50;0.30;;;;;;;23.70;38.26;99053.09;7813181;32;39254;-78
2023/07/26 16:25:55;;;;;;;0.30;0.30;;;;;;;23.69;39.19;99052.28;7794270;32;39317;-78
2023/07/26 16:30:11;;;;;;;4.15;0.50;;;;;;;23.50;37.38;99056.00;7794127;32;37925;-78
2023/07/26 16:34:28;;;;;;;1.48;0.50;;;;;;;23.49;36.44;99068.34;7818424;32;36764;-79
2023/07/26 16:38:45;;;;;;;1.15;0.30;;;;;;;23.18;38.21;99091.69;7821356;32;39210;-78
2023/07/26 16:43:03;;;;;;;1.87;0.30;;;;;;;23.15;36.82;99095.25;7819154;32;38935;-79
2023/07/26 16:47:19;;;;;;;0.65;0.30;;;;;;;23.22;37.83;99093.37;7821033;32;38045;-79
2023/07/26 16:51:35;;;;;;;3.25;2.40;;;;;;;22.95;38.71;99091.72;7815584;32;36867;-78
2023/07/26 16:55:52;;;;;;;0.52;0.30;;;;;;;22.91;38.24;99104.75;7779763;32;40366;-78
2023/07/26 17:00:09;;;;;;;0.60;0.60;;;;;;;22.37;39.01;99104.59;7793696;32;39737;-78
2023/07/26 17:04:26;;;;;;;1.95;0.37;;;;;;;21.64;39.88;99109.81;7817040;32;38786;-77
2023/07/26 17:08:42;;;;;;;1.08;0.47;;;;;;;21.30;40.62;99117.75;7807255;32;37517;-78
2023/07/26 17:12:58;;;;;;;0.32;0.32;;;;;;;21.11;39.72;99126.00;7807011;32;39276;-79
2023/07/26 17:17:15;;;;;;;2.65;0.50;;;;;;;20.82;40.48;99125.28;7804288;32;40918;-82
2023/07/26 17:21:31;;;;;;;1.45;0.60;;;;;;;20.80;41.12;99130.41;7797582;32;37945;-82
2023/07/26 17:25:48;;;;;;;2.58;1.00;;;;;;;20.55;42.15;99132.47;7800807;32;36864;-81
2023/07/26 17:30:04;;;;;;;2.25;0.98;;;;;;;20.46;41.10;99132.63;7807239;32;39051;-81
2023/07/26 17:34:21;;;;;;;4.55;0.90;;;;;;;20.11;42.46;99135.19;7805037;32;39255;-81
2023/07/26 17:38:37;;;;;;;1.85;1.25;;;;;;;19.84;42.45;99148.66;7800604;32;38110;-81
2023/07/26 17:42:53;;;;;;;2.78;0.75;;;;;;;20.15;42.33;99153.53;7811468;32;37743;-81
2023/07/26 17:47:10;;;;;;;3.47;1.00;;;;;;;20.16;41.92;99155.16;7818921;32;39362;-78
2023/07/26 17:51:26;;;;;;;0.80;0.80;;;;;;;19.86;43.19;99160.97;7807660;32;40754;-78
2023/07/26 17:55:43;;;;;;;0.62;0.62;;;;;;;19.75;44.74;99184.75;7820462;32;37914;-79
2023/07/26 17:59:59;;;;;;;2.15;0.90;;;;;;;19.65;44.58;99176.91;7807108;32;37740;-80
2023/07/26 18:04:15;;;;;;;0.77;0.65;;;;;;;19.87;44.01;99193.03;7810476;32;39173;-78
2023/07/26 18:08:36;;;;;;;3.17;1.92;;;;;;;19.61;45.25;99182.31;7820228;32;40024;-79
2023/07/26 18:12:53;;;;;;;2.05;1.15;;;;;;;19.46;46.27;99186.56;7820034;32;37876;-79
2023/07/26 18:17:09;;;;;;;1.02;0.80;;;;;;;19.48;46.33;99197.28;7820174;32;36957;-78
2023/07/26 18:21:25;;;;;;;1.73;0.98;;;;;;;19.37;46.89;99196.97;7820319;32;38929;-79
2023/07/26 18:25:42;;;;;;;1.15;0.82;;;;;;;18.96;48.10;99198.75;7819960;32;39891;-79
2023/07/26 18:29:58;;;;;;;0.60;0.60;;;;;;;18.70;49.07;99208.09;7812381;32;37859;-78
2023/07/26 18:34:16;;;;;;;1.48;0.60;;;;;;;18.81;48.71;99215.94;7792715;32;37806;-78
2023/07/26 18:38:32;;;;;;;1.90;0.88;;;;;;;18.72;48.82;99227.88;7810584;32;38971;-78
2023/07/26 18:42:49;;;;;;;1.17;0.75;;;;;;;18.73;48.81;99240.53;7808918;32;40807;-77
2023/07/26 18:47:07;;;;;;;2.87;0.75;;;;;;;18.95;48.77;99252.38;7794039;32;38872;-78
2023/07/26 18:51:24;;;;;;;0.70;0.70;;;;;;;18.87;49.68;99256.03;7804037;32;36079;-77
2023/07/26 18:55:41;;;;;;;0.68;0.57;;;;;;;18.87;49.23;99265.12;7812289;32;39249;-78
2023/07/26 18:59:59;;;;;;;1.10;0.70;;;;;;;18.79;49.83;99268.75;7797174;32;40576;-77
2023/07/26 19:04:16;;;;;;;1.55;0.70;;;;;;;18.80;50.15;99278.66;7804957;32;37791;-77
2023/07/26 19:08:34;;;;;;;0.45;0.45;;;;;;;18.72;50.53;99279.53;7819412;32;36952;-80
2023/07/26 19:12:51;;;;;;;0.88;0.88;;;;;;;18.70;50.67;99279.88;7804134;32;39155;-80
2023/07/26 19:17:07;;;;;;;1.15;0.90;;;;;;;18.65;50.25;99288.34;7791992;32;40874;-82
2023/07/26 19:21:23;;;;;;;0.90;0.68;;;;;;;18.80;49.53;99289.69;7791799;32;37823;-80
2023/07/26 19:25:40;;;;;;;0.82;0.82;;;;;;;18.58;50.42;99307.41;7792021;32;36960;-80
2023/07/26 19:29:56;;;;;;;1.80;0.80;;;;;;;18.52;50.51;99311.50;7792006;32;39040;-80
2023/07/26 19:34:12;;;;;;;0.93;0.77;;;;;;;18.57;50.31;99319.59;7791484;32;40737;-80
2023/07/26 19:38:29;;;;;;;0.80;0.70;;;;;;;18.58;50.45;99321.22;7790944;32;37909;-79
2023/07/26 19:42:45;;;;;;;0.93;0.82;;;;;;;18.46;50.95;99318.41;7791247;32;36988;-79
2023/07/26 19:47:04;;;;;;;1.00;0.70;;;;;;;18.53;51.07;99324.19;7791543;32;39049;-80
2023/07/26 19:51:21;;;;;;;1.50;0.90;;;;;;;18.28;51.78;99345.28;7797068;32;39959;-79
2023/07/26 19:55:37;;;;;;;0.93;0.70;;;;;;;18.13;52.72;99338.41;7799052;32;38146;-80
2023/07/26 19:59:53;;;;;;;2.03;1.30;;;;;;;18.10;52.90;99339.06;7795641;32;36997;-80
2023/07/26 20:04:10;;;;;;;1.58;0.73;;;;;;;18.07;52.65;99332.25;7792939;32;39904;-81
2023/07/26 20:08:27;;;;;;;2.10;1.23;;;;;;;17.98;53.28;99337.81;7791068;32;39930;-78